createdAt,value
2019-04-30T00:01:36.254Z,10.45
2019-04-30T00:04:50.529Z,10.39
2019-04-30T00:08:05.844Z,10.39
2019-04-30T00:11:19.683Z,10.42
2019-04-30T00:14:38.626Z,10.43
2019-04-30T00:17:52.994Z,10.41
2019-04-30T00:21:05.566Z,10.40
2019-04-30T00:24:19.815Z,10.43
2019-04-30T00:27:33.539Z,10.45
2019-04-30T00:30:47.873Z,10.45
2019-04-30T00:34:01.775Z,10.37
2019-04-30T00:37:18.771Z,10.40
2019-04-30T00:40:30.959Z,10.44
2019-04-30T00:43:49.377Z,10.45
2019-04-30T00:47:04.210Z,10.44
2019-04-30T00:50:15.922Z,10.38
2019-04-30T00:53:29.565Z,10.36
2019-04-30T00:56:43.311Z,10.37
2019-04-30T00:59:57.029Z,10.39
2019-04-30T01:03:16.378Z,10.33
2019-04-30T01:06:30.350Z,10.34
2019-04-30T01:09:49.277Z,10.35
2019-04-30T01:13:07.359Z,10.37
2019-04-30T01:16:15.357Z,10.34
2019-04-30T01:19:32.315Z,10.37
2019-04-30T01:22:44.722Z,10.30
2019-04-30T01:25:59.158Z,10.32
2019-04-30T01:29:12.775Z,10.38
2019-04-30T01:32:28.161Z,10.38
2019-04-30T01:35:41.965Z,10.42
2019-04-30T01:38:55.497Z,10.38
2019-04-30T01:42:11.347Z,10.42
2019-04-30T01:45:30.120Z,10.39
2019-04-30T01:48:43.675Z,10.34
2019-04-30T01:51:57.374Z,10.31
2019-04-30T01:55:11.183Z,10.28
2019-04-30T01:58:33.803Z,10.28
2019-04-30T02:01:48.730Z,10.31
2019-04-30T02:05:03.074Z,10.31
2019-04-30T02:08:16.779Z,10.34
2019-04-30T02:11:30.930Z,10.36
2019-04-30T02:14:44.675Z,10.36
2019-04-30T02:17:58.827Z,10.36
2019-04-30T02:21:12.797Z,10.39
2019-04-30T02:24:26.297Z,10.34
2019-04-30T02:27:40.225Z,10.32
2019-04-30T02:30:54.063Z,10.35
2019-04-30T02:34:15.970Z,10.34
2019-04-30T02:37:31.425Z,10.31
2019-04-30T02:40:45.436Z,10.31
2019-04-30T02:44:00.618Z,10.36
2019-04-30T02:47:16.545Z,10.38
2019-04-30T02:50:32.637Z,10.38
2019-04-30T02:54:23.667Z,10.36
2019-04-30T02:57:35.779Z,10.40
2019-04-30T03:00:49.687Z,10.41
2019-04-30T03:04:03.418Z,10.35
2019-04-30T03:07:19.395Z,10.37
2019-04-30T03:10:32.629Z,10.34
2019-04-30T03:13:49.262Z,10.37
2019-04-30T03:17:11.367Z,10.36
2019-04-30T03:20:36.279Z,10.37
2019-04-30T03:23:50.333Z,10.38
2019-04-30T03:27:04.159Z,10.37
2019-04-30T03:30:21.995Z,10.37
2019-04-30T03:33:33.613Z,10.39
2019-04-30T03:36:50.202Z,10.39
2019-04-30T03:40:04.373Z,10.36
2019-04-30T03:43:20.109Z,10.35
2019-04-30T03:46:33.584Z,10.22
2019-04-30T03:49:49.916Z,10.20
2019-04-30T03:53:02.884Z,10.13
2019-04-30T03:56:22.400Z,10.20
2019-04-30T03:59:32.284Z,10.21
2019-04-30T04:02:46.656Z,10.23
2019-04-30T04:06:21.266Z,10.26
2019-04-30T04:09:40.128Z,10.27
2019-04-30T04:12:54.020Z,10.22
2019-04-30T04:16:09.667Z,10.25
2019-04-30T04:19:23.524Z,10.22
2019-04-30T04:22:40.092Z,10.16
2019-04-30T04:25:52.691Z,10.16
2019-04-30T04:29:06.188Z,10.21
2019-04-30T04:32:23.955Z,10.28
2019-04-30T04:35:35.924Z,10.30
2019-04-30T04:38:50.750Z,10.32
2019-04-30T04:42:04.642Z,10.38
2019-04-30T04:45:19.881Z,10.37
2019-04-30T04:48:33.723Z,10.41
2019-04-30T04:51:49.266Z,10.30
2019-04-30T04:55:03.267Z,10.32
2019-04-30T04:58:21.170Z,10.38
2019-04-30T05:01:32.379Z,10.40
2019-04-30T05:04:45.975Z,10.38
2019-04-30T05:07:59.850Z,10.38
2019-04-30T05:11:13.350Z,10.28
2019-04-30T05:16:33.698Z,10.34
2019-04-30T05:19:48.750Z,10.29
2019-04-30T05:23:02.929Z,10.26
2019-04-30T05:26:16.509Z,10.26
2019-04-30T05:29:30.051Z,10.29
2019-04-30T05:32:43.530Z,10.42
2019-04-30T05:35:57.156Z,10.41
2019-04-30T05:39:10.766Z,10.51
2019-04-30T05:42:24.274Z,10.59
2019-04-30T05:45:39.014Z,10.67
2019-04-30T05:48:52.763Z,10.80
2019-04-30T05:52:06.293Z,10.82
2019-04-30T05:55:20.317Z,10.81
2019-04-30T05:58:34.055Z,10.87
2019-04-30T06:01:50.589Z,11.01
2019-04-30T06:05:04.076Z,11.11
2019-04-30T06:08:19.725Z,11.17
2019-04-30T06:11:51.852Z,11.28
2019-04-30T06:15:12.069Z,11.34
2019-04-30T06:18:25.884Z,11.43
2019-04-30T06:21:39.693Z,11.41
2019-04-30T06:24:53.416Z,11.46
2019-04-30T06:28:07.262Z,11.40
2019-04-30T06:31:31.915Z,11.40
2019-04-30T06:34:41.610Z,11.34
2019-04-30T06:37:53.723Z,11.36
2019-04-30T06:41:08.692Z,11.30
2019-04-30T06:44:34.750Z,11.30
2019-04-30T06:47:38.952Z,11.50
2019-04-30T06:50:52.609Z,11.73
2019-04-30T06:54:06.586Z,11.86
2019-04-30T06:57:22.377Z,11.91
2019-04-30T07:00:39.609Z,11.68
2019-04-30T07:03:52.628Z,11.58
2019-04-30T07:07:06.242Z,11.55
2019-04-30T07:10:26.066Z,11.52
2019-04-30T07:13:42.722Z,11.63
2019-04-30T07:16:56.627Z,11.74
2019-04-30T07:20:10.643Z,11.76
2019-04-30T07:23:24.245Z,12.22
2019-04-30T07:26:38.902Z,12.71
2019-04-30T07:29:52.559Z,13.00
2019-04-30T07:33:06.405Z,13.55
2019-04-30T07:36:20.142Z,13.60
2019-04-30T07:39:33.626Z,13.52
2019-04-30T07:42:49.170Z,13.21
2019-04-30T07:46:02.792Z,13.12
2019-04-30T07:49:16.278Z,13.11
2019-04-30T07:52:33.236Z,13.22
2019-04-30T07:55:49.369Z,13.21
2019-04-30T07:59:03.932Z,13.68
2019-04-30T08:02:20.529Z,14.02
2019-04-30T08:05:40.153Z,13.97
2019-04-30T08:08:57.431Z,13.74
2019-04-30T08:12:09.963Z,13.78
2019-04-30T08:15:24.368Z,13.95
2019-04-30T08:18:39.238Z,13.68
2019-04-30T08:21:52.773Z,13.66
2019-04-30T08:25:06.773Z,13.37
2019-04-30T08:28:20.644Z,13.57
2019-04-30T08:31:34.230Z,13.89
2019-04-30T08:34:49.981Z,14.52
2019-04-30T08:38:03.904Z,15.00
2019-04-30T08:41:19.246Z,14.68
2019-04-30T08:44:32.793Z,14.66
2019-04-30T08:47:46.560Z,15.03
2019-04-30T08:51:00.091Z,15.33
2019-04-30T08:54:13.798Z,15.50
2019-04-30T08:57:29.411Z,14.85
2019-04-30T09:00:43.315Z,14.86
2019-04-30T09:03:59.444Z,14.78
2019-04-30T09:07:13.892Z,14.97
2019-04-30T09:10:29.443Z,15.17
2019-04-30T09:13:43.108Z,15.52
2019-04-30T09:16:56.823Z,15.62
2019-04-30T09:20:11.020Z,16.12
2019-04-30T09:23:24.514Z,16.22
2019-04-30T09:26:39.144Z,16.12
2019-04-30T09:29:52.859Z,16.17
2019-04-30T09:33:06.480Z,16.27
2019-04-30T09:36:20.868Z,16.27
2019-04-30T09:39:34.521Z,16.46
2019-04-30T09:42:48.739Z,16.26
2019-04-30T09:46:14.997Z,16.52
2019-04-30T09:49:19.487Z,16.45
2019-04-30T09:52:35.812Z,16.09
2019-04-30T09:55:49.638Z,15.68
2019-04-30T09:59:03.404Z,15.71
2019-04-30T10:02:19.139Z,16.10
2019-04-30T10:05:32.926Z,16.22
2019-04-30T10:08:49.276Z,16.15
2019-04-30T10:12:09.709Z,16.25
2019-04-30T10:15:35.200Z,16.49
2019-04-30T10:18:48.914Z,16.46
2019-04-30T10:22:02.962Z,16.60
2019-04-30T10:25:16.563Z,16.58
2019-04-30T10:28:32.419Z,16.80
2019-04-30T10:31:46.146Z,16.99
2019-04-30T10:35:00.173Z,17.08
2019-04-30T10:38:13.898Z,17.00
2019-04-30T10:41:28.738Z,17.12
2019-04-30T10:44:42.689Z,17.22
2019-04-30T10:47:56.501Z,17.40
2019-04-30T10:51:10.110Z,17.43
2019-04-30T10:54:26.362Z,17.40
2019-04-30T10:57:39.652Z,17.30
2019-04-30T11:00:54.293Z,17.56
2019-04-30T11:04:08.896Z,17.44
2019-04-30T11:07:22.414Z,17.59
2019-04-30T11:10:36.764Z,17.59
2019-04-30T11:13:50.717Z,17.70
2019-04-30T11:17:04.656Z,17.78
2019-04-30T11:20:21.683Z,18.10
2019-04-30T11:23:34.359Z,18.21
2019-04-30T11:26:50.071Z,18.60
2019-04-30T11:30:05.963Z,18.68
2019-04-30T11:33:20.905Z,18.33
2019-04-30T11:36:35.077Z,18.43
2019-04-30T11:39:49.226Z,18.22
2019-04-30T11:43:03.243Z,18.21
2019-04-30T11:46:54.768Z,18.37
2019-04-30T11:50:12.144Z,18.48
2019-04-30T11:53:28.821Z,18.77
2019-04-30T11:56:41.892Z,18.80
2019-04-30T11:59:56.100Z,19.23
2019-04-30T12:03:09.828Z,19.08
2019-04-30T12:06:23.417Z,19.39
2019-04-30T12:09:55.389Z,19.55
2019-04-30T12:16:40.858Z,19.79
2019-04-30T12:19:54.463Z,19.72
2019-04-30T12:23:11.488Z,19.82
2019-04-30T12:26:23.498Z,19.66
2019-04-30T12:29:37.119Z,19.68
2019-04-30T12:32:51.020Z,19.87
2019-04-30T12:36:06.392Z,20.09
2019-04-30T12:39:20.114Z,20.24
2019-04-30T12:42:33.851Z,20.29
2019-04-30T12:46:01.905Z,20.30
2019-04-30T12:49:10.195Z,20.46
2019-04-30T12:52:29.704Z,20.50
2019-04-30T12:56:00.282Z,20.73
2019-04-30T12:59:13.997Z,20.54
2019-04-30T13:02:29.034Z,20.77
2019-04-30T13:05:42.995Z,20.64
2019-04-30T13:08:59.756Z,20.42
2019-04-30T13:12:12.922Z,20.58
2019-04-30T13:15:26.672Z,20.93
2019-04-30T13:18:40.296Z,20.88
2019-04-30T13:21:53.810Z,21.33
2019-04-30T13:25:09.282Z,21.47
2019-04-30T13:28:24.931Z,21.33
2019-04-30T13:31:40.281Z,21.34
2019-04-30T13:35:00.665Z,21.21
2019-04-30T13:38:24.995Z,20.78
2019-04-30T13:41:51.019Z,20.84
2019-04-30T13:45:05.235Z,20.90
2019-04-30T13:48:19.723Z,21.23
2019-04-30T13:51:33.296Z,21.27
2019-04-30T13:54:46.804Z,21.61
2019-04-30T13:58:00.318Z,21.96
2019-04-30T14:01:16.835Z,22.10
2019-04-30T14:05:02.324Z,21.74
2019-04-30T14:08:44.336Z,21.76
2019-04-30T14:11:58.190Z,21.57
2019-04-30T14:15:14.777Z,21.48
2019-04-30T14:18:33.783Z,21.08
2019-04-30T14:21:44.144Z,20.95
2019-04-30T14:24:57.923Z,21.06
2019-04-30T14:28:11.653Z,21.13
2019-04-30T14:31:28.836Z,21.40
2019-04-30T14:34:42.843Z,21.77
2019-04-30T14:37:56.470Z,22.00
2019-04-30T14:41:10.602Z,22.10
2019-04-30T14:44:26.256Z,22.25
2019-04-30T14:47:50.311Z,22.35
2019-04-30T14:51:03.424Z,22.16
2019-04-30T14:54:26.313Z,22.03
2019-04-30T14:58:05.638Z,22.01
2019-04-30T15:01:25.099Z,22.23
2019-04-30T15:04:39.274Z,22.42
2019-04-30T15:07:53.060Z,22.41
2019-04-30T15:11:08.947Z,22.24
2019-04-30T15:14:23.076Z,21.94
2019-04-30T15:17:36.956Z,22.19
2019-04-30T15:20:52.471Z,22.17
2019-04-30T15:24:15.618Z,22.29
2019-04-30T15:27:29.121Z,22.47
2019-04-30T15:30:42.725Z,22.06
2019-04-30T15:34:10.727Z,21.83
2019-04-30T15:37:23.991Z,22.00
2019-04-30T15:40:38.860Z,22.34
2019-04-30T15:43:52.779Z,21.87
2019-04-30T15:47:06.491Z,21.31
2019-04-30T15:50:20.203Z,21.15
2019-04-30T15:53:33.716Z,21.36
2019-04-30T15:56:48.999Z,21.60
2019-04-30T16:00:03.798Z,21.77
2019-04-30T16:03:22.793Z,21.92
2019-04-30T16:06:36.267Z,22.31
2019-04-30T16:10:00.838Z,22.62
2019-04-30T16:13:19.484Z,22.76
2019-04-30T16:16:35.096Z,22.79
2019-04-30T16:19:48.593Z,22.83
2019-04-30T16:23:02.429Z,23.25
2019-04-30T16:26:16.201Z,23.51
2019-04-30T16:29:30.107Z,23.48
2019-04-30T16:32:43.833Z,22.97
2019-04-30T16:35:58.978Z,23.03
2019-04-30T16:39:12.704Z,23.00
2019-04-30T16:42:26.241Z,23.58
2019-04-30T16:45:39.864Z,24.48
2019-04-30T16:48:53.490Z,24.88
2019-04-30T16:52:09.142Z,25.54
2019-04-30T16:55:22.524Z,26.53
2019-04-30T16:58:54.674Z,27.69
2019-04-30T17:02:09.468Z,27.80
2019-04-30T17:05:36.486Z,28.25
2019-04-30T17:09:01.035Z,27.94
2019-04-30T17:12:23.065Z,27.98
2019-04-30T17:15:37.492Z,26.88
2019-04-30T17:18:51.005Z,26.88
2019-04-30T17:22:04.805Z,26.72
2019-04-30T17:25:18.641Z,25.68
2019-04-30T17:28:32.269Z,25.03
2019-04-30T17:31:46.091Z,25.31
2019-04-30T17:34:59.638Z,24.29
2019-04-30T17:38:13.554Z,23.14
2019-04-30T17:41:27.182Z,22.16
2019-04-30T17:44:40.968Z,21.55
2019-04-30T17:47:54.848Z,21.04
2019-04-30T17:51:09.415Z,20.54
2019-04-30T17:54:23.179Z,20.05
2019-04-30T17:57:36.917Z,19.47
2019-04-30T18:00:53.713Z,19.13
2019-04-30T18:04:08.781Z,18.76
2019-04-30T18:07:22.665Z,18.41
2019-04-30T18:10:36.519Z,17.97
2019-04-30T18:13:50.713Z,17.64
2019-04-30T18:17:04.984Z,17.36
2019-04-30T18:20:29.133Z,17.16
2019-04-30T18:23:53.994Z,16.92
2019-04-30T18:27:43.935Z,16.65
2019-04-30T18:30:51.574Z,16.30
2019-04-30T18:34:05.234Z,16.03
2019-04-30T18:37:19.027Z,15.81
2019-04-30T18:40:32.732Z,15.55
2019-04-30T18:43:48.594Z,15.32
2019-04-30T18:47:02.465Z,15.10
2019-04-30T18:50:16.372Z,14.79
2019-04-30T18:53:31.904Z,14.56
2019-04-30T18:56:45.633Z,14.37
2019-04-30T19:00:01.501Z,14.26
2019-04-30T19:03:14.978Z,14.16
2019-04-30T19:06:29.499Z,14.06
2019-04-30T19:09:50.417Z,14.01
2019-04-30T19:13:19.757Z,13.89
2019-04-30T19:16:46.516Z,13.82
2019-04-30T19:20:18.911Z,13.69
2019-04-30T19:23:32.501Z,13.57
2019-04-30T19:26:46.021Z,13.43
2019-04-30T19:29:59.537Z,13.38
2019-04-30T19:33:13.134Z,13.28
2019-04-30T19:36:35.067Z,13.24
2019-04-30T19:39:42.379Z,13.12
2019-04-30T19:42:55.881Z,13.04
2019-04-30T19:46:09.796Z,12.98
2019-04-30T19:49:23.282Z,12.88
2019-04-30T19:52:36.783Z,12.78
2019-04-30T19:55:50.778Z,12.68
2019-04-30T19:59:05.693Z,12.62
2019-04-30T20:02:21.692Z,12.58
2019-04-30T20:05:35.103Z,12.52
2019-04-30T20:08:48.715Z,12.45
2019-04-30T20:12:02.829Z,12.38
2019-04-30T20:15:21.547Z,12.27
2019-04-30T20:18:31.856Z,12.18
2019-04-30T20:21:50.769Z,12.09
2019-04-30T20:25:09.016Z,12.02
2019-04-30T20:28:22.558Z,11.97
2019-04-30T20:31:36.359Z,11.89
2019-04-30T20:34:49.966Z,11.84
2019-04-30T20:38:21.016Z,11.78
2019-04-30T20:41:34.517Z,11.72
2019-04-30T20:44:48.955Z,11.64
2019-04-30T20:48:03.095Z,11.57
2019-04-30T20:51:16.633Z,11.51
2019-04-30T20:54:30.252Z,11.42
2019-04-30T20:57:43.818Z,11.35
2019-04-30T21:01:04.015Z,11.31
2019-04-30T21:04:13.306Z,11.19
2019-04-30T21:07:26.825Z,11.07
2019-04-30T21:10:40.736Z,10.91
2019-04-30T21:16:33.812Z,10.88
2019-04-30T21:19:47.312Z,10.77
2019-04-30T21:23:00.975Z,10.74
2019-04-30T21:26:14.863Z,10.73
2019-04-30T21:29:29.542Z,10.66
2019-04-30T21:33:03.362Z,10.57
2019-04-30T21:36:20.171Z,10.60
2019-04-30T21:39:33.802Z,10.38
2019-04-30T21:42:47.554Z,10.28
2019-04-30T21:46:01.322Z,10.27
2019-04-30T21:49:14.835Z,10.26
2019-04-30T21:52:28.486Z,10.24
2019-04-30T21:55:42.012Z,10.16
2019-04-30T21:58:55.521Z,10.08
2019-04-30T22:02:09.976Z,10.01
2019-04-30T22:05:23.682Z,10.05
2019-04-30T22:08:38.813Z,10.00
2019-04-30T22:11:53.167Z,9.90
2019-04-30T22:15:07.074Z,9.84
2019-04-30T22:18:20.712Z,9.81
2019-04-30T22:21:34.323Z,9.77
2019-04-30T22:24:49.707Z,9.67
2019-04-30T22:28:03.736Z,9.64
2019-04-30T22:31:17.249Z,9.60
2019-04-30T22:34:30.819Z,9.52
2019-04-30T22:37:44.349Z,9.42
2019-04-30T22:40:58.922Z,9.32
2019-04-30T22:44:12.504Z,9.27
2019-04-30T22:47:26.121Z,9.22
2019-04-30T22:50:40.093Z,9.14
2019-04-30T22:53:53.732Z,9.06
2019-04-30T22:57:07.548Z,9.08
2019-04-30T23:00:29.145Z,9.02
2019-04-30T23:03:42.667Z,8.99
2019-04-30T23:06:56.591Z,8.89
2019-04-30T23:10:10.288Z,8.82
2019-04-30T23:13:24.141Z,8.74
2019-04-30T23:16:37.878Z,8.74
2019-04-30T23:19:51.424Z,8.71
2019-04-30T23:23:05.048Z,8.71
2019-04-30T23:26:19.109Z,8.71
2019-04-30T23:29:32.898Z,8.67
2019-04-30T23:32:46.719Z,8.67
2019-04-30T23:36:00.263Z,8.59
2019-04-30T23:39:14.087Z,8.51
2019-04-30T23:42:27.589Z,8.54
2019-04-30T23:45:41.431Z,8.59
2019-04-30T23:48:55.062Z,8.57
2019-04-30T23:52:08.789Z,8.59
2019-04-30T23:55:22.405Z,8.55
